sensor_id;sensor_type;location;lat;lon;timestamp;P1;durP1;ratioP1;P2;durP2;ratioP2
35907;SDS011;22003;50.320;8.054;2022-08-24T04:02:10;7.55;;;5.45;;
35907;SDS011;22003;50.320;8.054;2022-08-24T04:04:36;8.60;;;5.40;;
35907;SDS011;22003;50.320;8.054;2022-08-24T04:07:01;7.28;;;5.70;;
35907;SDS011;22003;50.320;8.054;2022-08-24T04:09:28;7.05;;;5.20;;
35907;SDS011;22003;50.320;8.054;2022-08-24T04:11:53;7.10;;;5.32;;
35907;SDS011;22003;50.320;8.054;2022-08-24T04:14:19;7.20;;;5.35;;
35907;SDS011;22003;50.320;8.054;2022-08-24T04:16:44;10.25;;;5.40;;
35907;SDS011;22003;50.320;8.054;2022-08-24T04:19:10;6.05;;;4.72;;
35907;SDS011;22003;50.320;8.054;2022-08-24T04:21:37;6.15;;;5.15;;
35907;SDS011;22003;50.320;8.054;2022-08-24T04:24:03;7.00;;;5.45;;
35907;SDS011;22003;50.320;8.054;2022-08-24T04:26:30;9.70;;;5.80;;
35907;SDS011;22003;50.320;8.054;2022-08-24T04:28:56;6.53;;;5.55;;
35907;SDS011;22003;50.320;8.054;2022-08-24T04:31:22;7.50;;;5.88;;
35907;SDS011;22003;50.320;8.054;2022-08-24T04:33:49;7.95;;;5.18;;
35907;SDS011;22003;50.320;8.054;2022-08-24T04:36:15;10.55;;;5.30;;
35907;SDS011;22003;50.320;8.054;2022-08-24T04:38:42;8.55;;;6.22;;
35907;SDS011;22003;50.320;8.054;2022-08-24T04:41:08;7.93;;;4.82;;
35907;SDS011;22003;50.320;8.054;2022-08-24T04:43:38;7.07;;;5.60;;
35907;SDS011;22003;50.320;8.054;2022-08-24T04:46:04;6.20;;;5.18;;
35907;SDS011;22003;50.320;8.054;2022-08-24T04:48:31;5.90;;;5.30;;
35907;SDS011;22003;50.320;8.054;2022-08-24T04:51:00;8.75;;;6.20;;
35907;SDS011;22003;50.320;8.054;2022-08-24T04:53:26;7.47;;;5.55;;
35907;SDS011;22003;50.320;8.054;2022-08-24T04:55:52;11.40;;;6.75;;
35907;SDS011;22003;50.320;8.054;2022-08-24T04:58:17;8.40;;;5.68;;
35907;SDS011;22003;50.320;8.054;2022-08-24T05:00:43;11.18;;;7.35;;
35907;SDS011;22003;50.320;8.054;2022-08-24T05:03:09;12.95;;;6.32;;
35907;SDS011;22003;50.320;8.054;2022-08-24T05:05:38;14.20;;;7.05;;
35907;SDS011;22003;50.320;8.054;2022-08-24T05:08:04;8.25;;;5.03;;
35907;SDS011;22003;50.320;8.054;2022-08-24T05:10:30;6.60;;;5.30;;
35907;SDS011;22003;50.320;8.054;2022-08-24T05:12:55;8.32;;;5.50;;
35907;SDS011;22003;50.320;8.054;2022-08-24T05:15:20;6.95;;;4.95;;
35907;SDS011;22003;50.320;8.054;2022-08-24T05:17:45;7.07;;;5.28;;
35907;SDS011;22003;50.320;8.054;2022-08-24T05:20:11;7.72;;;6.30;;
35907;SDS011;22003;50.320;8.054;2022-08-24T05:22:36;7.32;;;5.13;;
35907;SDS011;22003;50.320;8.054;2022-08-24T05:25:03;9.27;;;5.72;;
35907;SDS011;22003;50.320;8.054;2022-08-24T05:27:29;8.30;;;5.77;;
35907;SDS011;22003;50.320;8.054;2022-08-24T05:29:54;7.95;;;5.38;;
35907;SDS011;22003;50.320;8.054;2022-08-24T05:32:19;7.82;;;6.03;;
35907;SDS011;22003;50.320;8.054;2022-08-24T05:34:45;10.43;;;5.97;;
35907;SDS011;22003;50.320;8.054;2022-08-24T05:37:10;7.40;;;5.65;;
35907;SDS011;22003;50.320;8.054;2022-08-24T05:39:36;10.43;;;6.07;;
35907;SDS011;22003;50.320;8.054;2022-08-24T05:42:01;11.02;;;5.25;;
35907;SDS011;22003;50.320;8.054;2022-08-24T05:44:27;15.48;;;5.78;;
35907;SDS011;22003;50.320;8.054;2022-08-24T05:46:55;17.65;;;6.20;;
35907;SDS011;22003;50.320;8.054;2022-08-24T05:49:22;18.27;;;5.65;;
35907;SDS011;22003;50.320;8.054;2022-08-24T05:51:48;22.63;;;7.47;;
35907;SDS011;22003;50.320;8.054;2022-08-24T05:54:13;21.00;;;6.00;;
35907;SDS011;22003;50.320;8.054;2022-08-24T05:56:39;25.70;;;7.65;;
35907;SDS011;22003;50.320;8.054;2022-08-24T05:59:04;20.17;;;6.15;;
35907;SDS011;22003;50.320;8.054;2022-08-24T06:01:30;20.13;;;6.28;;
35907;SDS011;22003;50.320;8.054;2022-08-24T06:03:56;21.08;;;6.32;;
35907;SDS011;22003;50.320;8.054;2022-08-24T06:06:22;14.25;;;5.95;;
35907;SDS011;22003;50.320;8.054;2022-08-24T06:08:49;14.50;;;5.85;;
35907;SDS011;22003;50.320;8.054;2022-08-24T06:11:35;21.02;;;6.20;;
35907;SDS011;22003;50.320;8.054;2022-08-24T06:14:03;23.17;;;6.60;;
35907;SDS011;22003;50.320;8.054;2022-08-24T06:16:46;11.60;;;5.28;;
35907;SDS011;22003;50.320;8.054;2022-08-24T06:19:13;15.93;;;5.57;;
35907;SDS011;22003;50.320;8.054;2022-08-24T06:21:40;11.65;;;5.55;;
35907;SDS011;22003;50.320;8.054;2022-08-24T06:24:06;11.10;;;4.95;;
35907;SDS011;22003;50.320;8.054;2022-08-24T06:26:32;20.73;;;6.00;;
35907;SDS011;22003;50.320;8.054;2022-08-24T06:29:16;20.45;;;7.00;;
35907;SDS011;22003;50.320;8.054;2022-08-24T06:31:44;17.83;;;5.88;;
35907;SDS011;22003;50.320;8.054;2022-08-24T06:34:12;15.32;;;5.32;;
35907;SDS011;22003;50.320;8.054;2022-08-24T06:36:39;12.63;;;5.70;;
35907;SDS011;22003;50.320;8.054;2022-08-24T06:39:04;19.38;;;5.18;;
35907;SDS011;22003;50.320;8.054;2022-08-24T06:41:30;9.45;;;4.88;;
35907;SDS011;22003;50.320;8.054;2022-08-24T06:43:55;8.50;;;5.30;;
35907;SDS011;22003;50.320;8.054;2022-08-24T06:46:21;13.32;;;5.22;;
35907;SDS011;22003;50.320;8.054;2022-08-24T06:48:46;7.45;;;5.72;;
35907;SDS011;22003;50.320;8.054;2022-08-24T06:51:13;10.38;;;4.57;;
35907;SDS011;22003;50.320;8.054;2022-08-24T06:53:40;8.68;;;4.68;;
35907;SDS011;22003;50.320;8.054;2022-08-24T06:56:06;14.77;;;4.88;;
35907;SDS011;22003;50.320;8.054;2022-08-24T06:58:32;14.25;;;5.10;;
35907;SDS011;22003;50.320;8.054;2022-08-24T07:01:06;16.55;;;4.50;;
35907;SDS011;22003;50.320;8.054;2022-08-24T07:03:50;11.73;;;4.97;;
35907;SDS011;22003;50.320;8.054;2022-08-24T07:06:16;12.30;;;4.95;;
35907;SDS011;22003;50.320;8.054;2022-08-24T07:08:42;9.18;;;4.28;;
35907;SDS011;22003;50.320;8.054;2022-08-24T07:11:08;11.77;;;4.53;;
35907;SDS011;22003;50.320;8.054;2022-08-24T07:13:35;13.05;;;4.43;;
35907;SDS011;22003;50.320;8.054;2022-08-24T07:16:00;12.02;;;4.68;;
35907;SDS011;22003;50.320;8.054;2022-08-24T07:18:26;10.55;;;4.00;;
35907;SDS011;22003;50.320;8.054;2022-08-24T07:20:52;14.65;;;4.72;;
35907;SDS011;22003;50.320;8.054;2022-08-24T07:23:18;8.07;;;4.40;;
35907;SDS011;22003;50.320;8.054;2022-08-24T07:25:44;11.63;;;3.78;;
35907;SDS011;22003;50.320;8.054;2022-08-24T07:28:11;7.63;;;3.58;;
35907;SDS011;22003;50.320;8.054;2022-08-24T07:30:37;8.73;;;3.58;;
35907;SDS011;22003;50.320;8.054;2022-08-24T07:33:04;7.07;;;3.20;;
35907;SDS011;22003;50.320;8.054;2022-08-24T07:35:30;7.82;;;3.45;;
35907;SDS011;22003;50.320;8.054;2022-08-24T07:37:59;6.10;;;3.60;;
35907;SDS011;22003;50.320;8.054;2022-08-24T07:40:25;10.60;;;4.28;;
35907;SDS011;22003;50.320;8.054;2022-08-24T07:42:53;8.80;;;3.67;;
35907;SDS011;22003;50.320;8.054;2022-08-24T07:45:20;11.45;;;3.80;;
35907;SDS011;22003;50.320;8.054;2022-08-24T07:47:46;6.00;;;3.70;;
35907;SDS011;22003;50.320;8.054;2022-08-24T07:50:12;8.73;;;3.75;;
35907;SDS011;22003;50.320;8.054;2022-08-24T07:52:38;7.25;;;3.35;;
35907;SDS011;22003;50.320;8.054;2022-08-24T07:55:04;8.00;;;4.15;;
35907;SDS011;22003;50.320;8.054;2022-08-24T07:57:30;7.83;;;3.30;;
35907;SDS011;22003;50.320;8.054;2022-08-24T07:59:59;5.50;;;3.03;;
35907;SDS011;22003;50.320;8.054;2022-08-24T08:02:25;7.15;;;3.22;;
35907;SDS011;22003;50.320;8.054;2022-08-24T08:04:53;6.95;;;2.97;;
35907;SDS011;22003;50.320;8.054;2022-08-24T08:07:19;13.32;;;3.92;;
35907;SDS011;22003;50.320;8.054;2022-08-24T08:09:45;6.85;;;3.05;;
35907;SDS011;22003;50.320;8.054;2022-08-24T08:12:10;8.02;;;3.10;;
35907;SDS011;22003;50.320;8.054;2022-08-24T08:14:36;5.82;;;3.00;;
35907;SDS011;22003;50.320;8.054;2022-08-24T08:17:02;8.02;;;3.42;;
35907;SDS011;22003;50.320;8.054;2022-08-24T08:19:28;7.20;;;3.03;;
35907;SDS011;22003;50.320;8.054;2022-08-24T08:21:53;4.57;;;2.80;;
35907;SDS011;22003;50.320;8.054;2022-08-24T08:24:37;6.35;;;2.80;;
35907;SDS011;22003;50.320;8.054;2022-08-24T08:27:03;6.90;;;2.90;;
35907;SDS011;22003;50.320;8.054;2022-08-24T08:29:30;3.85;;;2.78;;
35907;SDS011;22003;50.320;8.054;2022-08-24T08:31:57;3.20;;;2.42;;
35907;SDS011;22003;50.320;8.054;2022-08-24T08:34:24;4.38;;;2.60;;
35907;SDS011;22003;50.320;8.054;2022-08-24T08:36:50;4.95;;;2.47;;
35907;SDS011;22003;50.320;8.054;2022-08-24T08:39:16;9.43;;;2.78;;
35907;SDS011;22003;50.320;8.054;2022-08-24T08:47:05;4.30;;;2.53;;
35907;SDS011;22003;50.320;8.054;2022-08-24T09:00:20;4.18;;;2.20;;
35907;SDS011;22003;50.320;8.054;2022-08-24T09:03:10;5.30;;;2.50;;
35907;SDS011;22003;50.320;8.054;2022-08-24T09:17:38;5.50;;;2.42;;
35907;SDS011;22003;50.320;8.054;2022-08-24T09:22:59;7.00;;;2.65;;
35907;SDS011;22003;50.320;8.054;2022-08-24T09:25:49;4.00;;;2.30;;
35907;SDS011;22003;50.320;8.054;2022-08-24T09:28:38;15.77;;;2.92;;
35907;SDS011;22003;50.320;8.054;2022-08-24T09:31:26;5.53;;;2.55;;
35907;SDS011;22003;50.320;8.054;2022-08-24T09:48:15;9.73;;;2.47;;
35907;SDS011;22003;50.320;8.054;2022-08-24T09:51:07;3.35;;;2.13;;
35907;SDS011;22003;50.320;8.054;2022-08-24T09:54:00;8.10;;;2.10;;
35907;SDS011;22003;50.320;8.054;2022-08-24T09:56:42;3.93;;;2.47;;
35907;SDS011;22003;50.320;8.054;2022-08-24T09:59:27;5.95;;;2.30;;
35907;SDS011;22003;50.320;8.054;2022-08-24T10:02:38;4.68;;;2.50;;
35907;SDS011;22003;50.320;8.054;2022-08-24T10:05:08;7.05;;;2.20;;
35907;SDS011;22003;50.320;8.054;2022-08-24T10:07:49;4.88;;;2.28;;
35907;SDS011;22003;50.320;8.054;2022-08-24T10:10:48;8.60;;;3.25;;
35907;SDS011;22003;50.320;8.054;2022-08-24T10:13:33;8.48;;;2.80;;
35907;SDS011;22003;50.320;8.054;2022-08-24T10:16:32;5.03;;;2.10;;
35907;SDS011;22003;50.320;8.054;2022-08-24T10:22:04;5.15;;;2.28;;
35907;SDS011;22003;50.320;8.054;2022-08-24T10:25:18;9.88;;;2.45;;
35907;SDS011;22003;50.320;8.054;2022-08-24T10:27:44;4.50;;;2.17;;
35907;SDS011;22003;50.320;8.054;2022-08-24T10:30:39;4.90;;;2.35;;
35907;SDS011;22003;50.320;8.054;2022-08-24T10:33:23;6.95;;;2.55;;
35907;SDS011;22003;50.320;8.054;2022-08-24T10:45:23;3.00;;;2.00;;
35907;SDS011;22003;50.320;8.054;2022-08-24T10:50:57;3.30;;;2.28;;
35907;SDS011;22003;50.320;8.054;2022-08-24T10:53:34;3.80;;;1.98;;
35907;SDS011;22003;50.320;8.054;2022-08-24T10:56:13;4.05;;;2.17;;
35907;SDS011;22003;50.320;8.054;2022-08-24T10:58:43;7.90;;;2.40;;
35907;SDS011;22003;50.320;8.054;2022-08-24T11:04:00;2.38;;;1.80;;
35907;SDS011;22003;50.320;8.054;2022-08-24T11:06:35;3.17;;;1.90;;
35907;SDS011;22003;50.320;8.054;2022-08-24T11:09:07;2.92;;;1.88;;
35907;SDS011;22003;50.320;8.054;2022-08-24T11:11:37;7.70;;;1.88;;
35907;SDS011;22003;50.320;8.054;2022-08-24T11:16:36;3.38;;;2.10;;
35907;SDS011;22003;50.320;8.054;2022-08-24T11:19:06;10.20;;;2.03;;
35907;SDS011;22003;50.320;8.054;2022-08-24T11:21:48;4.30;;;2.15;;
35907;SDS011;22003;50.320;8.054;2022-08-24T11:26:50;5.00;;;2.40;;
35907;SDS011;22003;50.320;8.054;2022-08-24T11:32:27;3.90;;;2.22;;
35907;SDS011;22003;50.320;8.054;2022-08-24T11:35:04;5.78;;;2.00;;
35907;SDS011;22003;50.320;8.054;2022-08-24T11:37:38;2.85;;;2.13;;
35907;SDS011;22003;50.320;8.054;2022-08-24T11:40:05;2.53;;;2.10;;
35907;SDS011;22003;50.320;8.054;2022-08-24T11:45:21;4.07;;;2.60;;
35907;SDS011;22003;50.320;8.054;2022-08-24T11:48:01;5.15;;;2.42;;
35907;SDS011;22003;50.320;8.054;2022-08-24T11:53:22;3.60;;;2.05;;
35907;SDS011;22003;50.320;8.054;2022-08-24T11:56:02;2.78;;;2.22;;
35907;SDS011;22003;50.320;8.054;2022-08-24T12:01:38;3.13;;;2.40;;
35907;SDS011;22003;50.320;8.054;2022-08-24T12:09:27;3.08;;;2.13;;
35907;SDS011;22003;50.320;8.054;2022-08-24T12:18:23;4.65;;;2.42;;
35907;SDS011;22003;50.320;8.054;2022-08-24T12:20:50;4.82;;;2.40;;
35907;SDS011;22003;50.320;8.054;2022-08-24T12:26:10;2.25;;;2.03;;
35907;SDS011;22003;50.320;8.054;2022-08-24T12:28:40;2.60;;;1.77;;
35907;SDS011;22003;50.320;8.054;2022-08-24T12:31:10;3.33;;;1.50;;
35907;SDS011;22003;50.320;8.054;2022-08-24T12:33:55;2.97;;;1.77;;
35907;SDS011;22003;50.320;8.054;2022-08-24T12:36:30;2.40;;;1.73;;
35907;SDS011;22003;50.320;8.054;2022-08-24T12:39:05;3.25;;;2.10;;
35907;SDS011;22003;50.320;8.054;2022-08-24T12:41:47;4.32;;;2.20;;
35907;SDS011;22003;50.320;8.054;2022-08-24T12:44:18;3.90;;;1.95;;
35907;SDS011;22003;50.320;8.054;2022-08-24T12:46:52;2.67;;;1.83;;
35907;SDS011;22003;50.320;8.054;2022-08-24T12:49:21;3.42;;;1.60;;
35907;SDS011;22003;50.320;8.054;2022-08-24T12:59:57;2.80;;;1.67;;
35907;SDS011;22003;50.320;8.054;2022-08-24T13:02:38;4.40;;;1.98;;
35907;SDS011;22003;50.320;8.054;2022-08-24T13:05:10;2.40;;;1.70;;
35907;SDS011;22003;50.320;8.054;2022-08-24T13:07:40;3.15;;;1.73;;
35907;SDS011;22003;50.320;8.054;2022-08-24T13:10:12;2.42;;;1.83;;
35907;SDS011;22003;50.320;8.054;2022-08-24T13:12:58;5.80;;;2.00;;
35907;SDS011;22003;50.320;8.054;2022-08-24T13:33:28;3.58;;;1.77;;
35907;SDS011;22003;50.320;8.054;2022-08-24T13:44:51;3.55;;;1.65;;
35907;SDS011;22003;50.320;8.054;2022-08-24T13:55:55;3.15;;;1.85;;
35907;SDS011;22003;50.320;8.054;2022-08-24T14:12:24;2.22;;;1.70;;
35907;SDS011;22003;50.320;8.054;2022-08-24T14:15:14;5.18;;;1.45;;
35907;SDS011;22003;50.320;8.054;2022-08-24T14:23:38;4.72;;;1.30;;
35907;SDS011;22003;50.320;8.054;2022-08-24T14:34:25;3.63;;;1.70;;
35907;SDS011;22003;50.320;8.054;2022-08-24T14:42:20;4.45;;;1.50;;
35907;SDS011;22003;50.320;8.054;2022-08-24T14:47:33;1.52;;;1.40;;
35907;SDS011;22003;50.320;8.054;2022-08-24T14:53:14;2.72;;;1.60;;
35907;SDS011;22003;50.320;8.054;2022-08-24T14:56:06;4.45;;;1.63;;
35907;SDS011;22003;50.320;8.054;2022-08-24T14:59:08;2.53;;;1.52;;
35907;SDS011;22003;50.320;8.054;2022-08-24T15:02:10;1.92;;;1.52;;
35907;SDS011;22003;50.320;8.054;2022-08-24T15:05:37;4.43;;;1.70;;
35907;SDS011;22003;50.320;8.054;2022-08-24T15:07:56;3.00;;;2.00;;
35907;SDS011;22003;50.320;8.054;2022-08-24T15:10:25;1.90;;;1.60;;
35907;SDS011;22003;50.320;8.054;2022-08-24T15:12:59;5.75;;;1.63;;
35907;SDS011;22003;50.320;8.054;2022-08-24T15:15:30;4.07;;;2.00;;
35907;SDS011;22003;50.320;8.054;2022-08-24T15:20:56;3.08;;;1.90;;
35907;SDS011;22003;50.320;8.054;2022-08-24T15:23:47;3.47;;;1.55;;
35907;SDS011;22003;50.320;8.054;2022-08-24T15:28:56;2.72;;;1.55;;
35907;SDS011;22003;50.320;8.054;2022-08-24T15:31:23;2.30;;;1.83;;
35907;SDS011;22003;50.320;8.054;2022-08-24T15:33:52;3.38;;;1.50;;
35907;SDS011;22003;50.320;8.054;2022-08-24T15:36:26;2.08;;;1.40;;
35907;SDS011;22003;50.320;8.054;2022-08-24T15:38:53;1.63;;;1.50;;
35907;SDS011;22003;50.320;8.054;2022-08-24T15:41:26;1.45;;;1.35;;
35907;SDS011;22003;50.320;8.054;2022-08-24T15:44:00;3.50;;;1.67;;
35907;SDS011;22003;50.320;8.054;2022-08-24T15:46:33;1.92;;;1.50;;
35907;SDS011;22003;50.320;8.054;2022-08-24T15:49:36;2.55;;;1.63;;
35907;SDS011;22003;50.320;8.054;2022-08-24T15:54:33;3.08;;;1.70;;
35907;SDS011;22003;50.320;8.054;2022-08-24T16:05:09;2.88;;;1.75;;
35907;SDS011;22003;50.320;8.054;2022-08-24T16:10:44;1.92;;;1.58;;
35907;SDS011;22003;50.320;8.054;2022-08-24T16:15:52;2.90;;;1.65;;
35907;SDS011;22003;50.320;8.054;2022-08-24T16:21:14;1.98;;;1.35;;
35907;SDS011;22003;50.320;8.054;2022-08-24T16:23:51;2.65;;;1.80;;
35907;SDS011;22003;50.320;8.054;2022-08-24T16:26:22;2.58;;;1.58;;
35907;SDS011;22003;50.320;8.054;2022-08-24T16:28:51;4.20;;;1.50;;
35907;SDS011;22003;50.320;8.054;2022-08-24T16:34:15;1.63;;;1.45;;
35907;SDS011;22003;50.320;8.054;2022-08-24T16:36:44;4.40;;;1.48;;
35907;SDS011;22003;50.320;8.054;2022-08-24T16:39:10;1.35;;;1.23;;
35907;SDS011;22003;50.320;8.054;2022-08-24T16:41:35;5.17;;;1.90;;
35907;SDS011;22003;50.320;8.054;2022-08-24T16:44:03;3.42;;;1.50;;
35907;SDS011;22003;50.320;8.054;2022-08-24T16:46:30;2.22;;;1.55;;
35907;SDS011;22003;50.320;8.054;2022-08-24T16:48:55;2.33;;;1.70;;
35907;SDS011;22003;50.320;8.054;2022-08-24T16:51:20;2.20;;;1.60;;
35907;SDS011;22003;50.320;8.054;2022-08-24T16:53:48;3.13;;;1.40;;
35907;SDS011;22003;50.320;8.054;2022-08-24T16:56:14;2.10;;;1.58;;
35907;SDS011;22003;50.320;8.054;2022-08-24T16:58:39;2.05;;;1.58;;
35907;SDS011;22003;50.320;8.054;2022-08-24T17:01:05;5.07;;;1.73;;
35907;SDS011;22003;50.320;8.054;2022-08-24T17:03:30;2.45;;;1.52;;
35907;SDS011;22003;50.320;8.054;2022-08-24T17:05:56;3.90;;;1.60;;
35907;SDS011;22003;50.320;8.054;2022-08-24T17:08:22;2.17;;;1.80;;
35907;SDS011;22003;50.320;8.054;2022-08-24T17:10:48;3.63;;;2.03;;
35907;SDS011;22003;50.320;8.054;2022-08-24T17:13:13;6.28;;;2.10;;
35907;SDS011;22003;50.320;8.054;2022-08-24T17:15:39;5.10;;;1.58;;
35907;SDS011;22003;50.320;8.054;2022-08-24T17:18:05;6.43;;;1.80;;
35907;SDS011;22003;50.320;8.054;2022-08-24T17:20:33;3.78;;;1.60;;
35907;SDS011;22003;50.320;8.054;2022-08-24T17:22:59;2.80;;;1.40;;
35907;SDS011;22003;50.320;8.054;2022-08-24T17:25:24;2.50;;;1.55;;
35907;SDS011;22003;50.320;8.054;2022-08-24T17:27:52;2.97;;;1.42;;
35907;SDS011;22003;50.320;8.054;2022-08-24T17:30:18;2.75;;;1.70;;
35907;SDS011;22003;50.320;8.054;2022-08-24T17:32:44;4.43;;;1.55;;
35907;SDS011;22003;50.320;8.054;2022-08-24T17:37:37;2.33;;;1.55;;
35907;SDS011;22003;50.320;8.054;2022-08-24T17:40:02;3.90;;;2.03;;
35907;SDS011;22003;50.320;8.054;2022-08-24T17:42:32;2.35;;;1.88;;
35907;SDS011;22003;50.320;8.054;2022-08-24T17:44:57;2.27;;;1.70;;
35907;SDS011;22003;50.320;8.054;2022-08-24T17:47:23;3.22;;;1.48;;
35907;SDS011;22003;50.320;8.054;2022-08-24T17:49:48;2.85;;;1.58;;
35907;SDS011;22003;50.320;8.054;2022-08-24T17:52:13;3.50;;;1.60;;
35907;SDS011;22003;50.320;8.054;2022-08-24T17:54:39;8.40;;;2.60;;
35907;SDS011;22003;50.320;8.054;2022-08-24T17:57:04;4.38;;;2.00;;
35907;SDS011;22003;50.320;8.054;2022-08-24T17:59:31;12.45;;;3.15;;
35907;SDS011;22003;50.320;8.054;2022-08-24T18:02:00;4.07;;;2.50;;
35907;SDS011;22003;50.320;8.054;2022-08-24T18:04:31;5.03;;;1.83;;
35907;SDS011;22003;50.320;8.054;2022-08-24T18:06:58;3.88;;;1.45;;
35907;SDS011;22003;50.320;8.054;2022-08-24T18:09:28;10.98;;;2.80;;
35907;SDS011;22003;50.320;8.054;2022-08-24T18:12:03;12.48;;;3.00;;
35907;SDS011;22003;50.320;8.054;2022-08-24T18:14:29;15.27;;;2.97;;
35907;SDS011;22003;50.320;8.054;2022-08-24T18:16:56;8.38;;;2.35;;
35907;SDS011;22003;50.320;8.054;2022-08-24T18:19:22;7.80;;;2.30;;
35907;SDS011;22003;50.320;8.054;2022-08-24T18:21:48;7.03;;;1.92;;
35907;SDS011;22003;50.320;8.054;2022-08-24T18:24:14;4.40;;;1.92;;
35907;SDS011;22003;50.320;8.054;2022-08-24T18:26:39;6.07;;;2.22;;
35907;SDS011;22003;50.320;8.054;2022-08-24T18:29:10;21.48;;;4.07;;
35907;SDS011;22003;50.320;8.054;2022-08-24T18:31:38;17.67;;;4.50;;
35907;SDS011;22003;50.320;8.054;2022-08-24T18:34:05;17.38;;;3.80;;
35907;SDS011;22003;50.320;8.054;2022-08-24T18:36:31;19.00;;;3.80;;
35907;SDS011;22003;50.320;8.054;2022-08-24T18:38:56;20.67;;;4.15;;
35907;SDS011;22003;50.320;8.054;2022-08-24T18:41:22;11.70;;;2.75;;
35907;SDS011;22003;50.320;8.054;2022-08-24T18:43:52;5.50;;;2.55;;
35907;SDS011;22003;50.320;8.054;2022-08-24T18:46:18;9.68;;;2.25;;
35907;SDS011;22003;50.320;8.054;2022-08-24T18:48:44;6.45;;;2.15;;
35907;SDS011;22003;50.320;8.054;2022-08-24T18:51:17;7.82;;;2.67;;
35907;SDS011;22003;50.320;8.054;2022-08-24T18:53:44;6.10;;;2.70;;
35907;SDS011;22003;50.320;8.054;2022-08-24T18:56:11;8.43;;;2.13;;
35907;SDS011;22003;50.320;8.054;2022-08-24T18:58:36;9.65;;;2.80;;
35907;SDS011;22003;50.320;8.054;2022-08-24T19:01:02;3.42;;;2.35;;
35907;SDS011;22003;50.320;8.054;2022-08-24T19:03:28;7.32;;;3.25;;
35907;SDS011;22003;50.320;8.054;2022-08-24T19:05:55;7.38;;;3.38;;
35907;SDS011;22003;50.320;8.054;2022-08-24T19:08:20;5.30;;;2.40;;
35907;SDS011;22003;50.320;8.054;2022-08-24T19:10:46;4.70;;;2.85;;
35907;SDS011;22003;50.320;8.054;2022-08-24T19:13:13;10.27;;;3.15;;
35907;SDS011;22003;50.320;8.054;2022-08-24T19:15:40;6.03;;;2.80;;
35907;SDS011;22003;50.320;8.054;2022-08-24T19:18:09;7.10;;;2.70;;
35907;SDS011;22003;50.320;8.054;2022-08-24T19:20:35;5.82;;;2.78;;
35907;SDS011;22003;50.320;8.054;2022-08-24T19:23:05;3.72;;;2.17;;
35907;SDS011;22003;50.320;8.054;2022-08-24T19:25:32;4.43;;;2.30;;
35907;SDS011;22003;50.320;8.054;2022-08-24T19:27:59;4.35;;;2.58;;
35907;SDS011;22003;50.320;8.054;2022-08-24T19:30:25;6.85;;;2.42;;
35907;SDS011;22003;50.320;8.054;2022-08-24T19:32:51;5.85;;;2.17;;
35907;SDS011;22003;50.320;8.054;2022-08-24T19:35:18;7.00;;;2.47;;
35907;SDS011;22003;50.320;8.054;2022-08-24T19:37:44;3.58;;;2.50;;
35907;SDS011;22003;50.320;8.054;2022-08-24T19:42:38;13.75;;;2.83;;
35907;SDS011;22003;50.320;8.054;2022-08-24T19:45:03;7.32;;;2.47;;
35907;SDS011;22003;50.320;8.054;2022-08-24T19:47:48;4.10;;;2.33;;
35907;SDS011;22003;50.320;8.054;2022-08-24T19:50:14;4.82;;;2.67;;
35907;SDS011;22003;50.320;8.054;2022-08-24T19:52:41;4.50;;;2.30;;
35907;SDS011;22003;50.320;8.054;2022-08-24T19:55:08;3.08;;;2.25;;
35907;SDS011;22003;50.320;8.054;2022-08-24T19:57:39;4.90;;;2.78;;
35907;SDS011;22003;50.320;8.054;2022-08-24T20:00:18;4.28;;;2.40;;
35907;SDS011;22003;50.320;8.054;2022-08-24T20:02:47;7.95;;;2.38;;
35907;SDS011;22003;50.320;8.054;2022-08-24T20:05:15;4.60;;;2.28;;
35907;SDS011;22003;50.320;8.054;2022-08-24T20:07:42;5.32;;;2.40;;
35907;SDS011;22003;50.320;8.054;2022-08-24T20:10:09;5.05;;;2.60;;
35907;SDS011;22003;50.320;8.054;2022-08-24T20:12:34;2.90;;;1.90;;
35907;SDS011;22003;50.320;8.054;2022-08-24T20:15:00;4.03;;;2.70;;
35907;SDS011;22003;50.320;8.054;2022-08-24T20:17:26;4.38;;;2.20;;
35907;SDS011;22003;50.320;8.054;2022-08-24T20:19:51;2.35;;;1.88;;
35907;SDS011;22003;50.320;8.054;2022-08-24T20:22:16;4.47;;;2.58;;
35907;SDS011;22003;50.320;8.054;2022-08-24T20:24:42;3.00;;;2.30;;
35907;SDS011;22003;50.320;8.054;2022-08-24T20:27:11;3.85;;;2.28;;
35907;SDS011;22003;50.320;8.054;2022-08-24T20:29:41;4.78;;;2.50;;
35907;SDS011;22003;50.320;8.054;2022-08-24T20:32:06;4.80;;;2.40;;
35907;SDS011;22003;50.320;8.054;2022-08-24T20:34:31;3.45;;;2.30;;
35907;SDS011;22003;50.320;8.054;2022-08-24T20:36:57;3.20;;;2.50;;
35907;SDS011;22003;50.320;8.054;2022-08-24T20:39:24;3.95;;;2.85;;
35907;SDS011;22003;50.320;8.054;2022-08-24T20:41:51;4.93;;;2.60;;
35907;SDS011;22003;50.320;8.054;2022-08-24T20:44:17;5.35;;;2.17;;
35907;SDS011;22003;50.320;8.054;2022-08-24T20:46:43;3.67;;;2.38;;
35907;SDS011;22003;50.320;8.054;2022-08-24T20:49:09;4.15;;;2.80;;
35907;SDS011;22003;50.320;8.054;2022-08-24T20:51:36;5.28;;;2.47;;
35907;SDS011;22003;50.320;8.054;2022-08-24T20:54:01;4.75;;;2.33;;
35907;SDS011;22003;50.320;8.054;2022-08-24T20:56:28;4.85;;;2.30;;
35907;SDS011;22003;50.320;8.054;2022-08-24T20:58:55;3.90;;;2.20;;
35907;SDS011;22003;50.320;8.054;2022-08-24T21:01:21;7.72;;;3.10;;
35907;SDS011;22003;50.320;8.054;2022-08-24T21:03:46;4.90;;;2.58;;
35907;SDS011;22003;50.320;8.054;2022-08-24T21:06:12;2.58;;;2.17;;
35907;SDS011;22003;50.320;8.054;2022-08-24T21:08:41;4.38;;;2.13;;
35907;SDS011;22003;50.320;8.054;2022-08-24T21:11:09;4.82;;;2.20;;
35907;SDS011;22003;50.320;8.054;2022-08-24T21:13:35;8.82;;;2.47;;
35907;SDS011;22003;50.320;8.054;2022-08-24T21:16:01;3.83;;;2.13;;
35907;SDS011;22003;50.320;8.054;2022-08-24T21:18:26;6.85;;;2.60;;
35907;SDS011;22003;50.320;8.054;2022-08-24T21:20:53;3.90;;;2.13;;
35907;SDS011;22003;50.320;8.054;2022-08-24T21:23:18;4.25;;;2.53;;
35907;SDS011;22003;50.320;8.054;2022-08-24T21:25:44;5.32;;;2.30;;
35907;SDS011;22003;50.320;8.054;2022-08-24T21:28:10;3.55;;;2.25;;
35907;SDS011;22003;50.320;8.054;2022-08-24T21:30:35;2.80;;;2.45;;
35907;SDS011;22003;50.320;8.054;2022-08-24T21:33:01;9.13;;;4.05;;
35907;SDS011;22003;50.320;8.054;2022-08-24T21:35:45;6.07;;;2.65;;
35907;SDS011;22003;50.320;8.054;2022-08-24T21:38:10;9.77;;;2.72;;
35907;SDS011;22003;50.320;8.054;2022-08-24T21:40:36;3.72;;;2.40;;
35907;SDS011;22003;50.320;8.054;2022-08-24T21:43:01;4.38;;;2.17;;
35907;SDS011;22003;50.320;8.054;2022-08-24T21:45:28;4.25;;;2.67;;
35907;SDS011;22003;50.320;8.054;2022-08-24T21:47:53;5.72;;;2.70;;
35907;SDS011;22003;50.320;8.054;2022-08-24T21:50:18;3.38;;;2.53;;
35907;SDS011;22003;50.320;8.054;2022-08-24T21:52:44;4.30;;;2.80;;
35907;SDS011;22003;50.320;8.054;2022-08-24T21:55:09;4.00;;;2.47;;
35907;SDS011;22003;50.320;8.054;2022-08-24T21:57:35;6.38;;;2.70;;
35907;SDS011;22003;50.320;8.054;2022-08-24T22:00:00;5.03;;;2.78;;
35907;SDS011;22003;50.320;8.054;2022-08-24T22:02:28;7.78;;;2.55;;
35907;SDS011;22003;50.320;8.054;2022-08-24T22:04:54;4.70;;;2.58;;
35907;SDS011;22003;50.320;8.054;2022-08-24T22:07:20;6.28;;;2.80;;
35907;SDS011;22003;50.320;8.054;2022-08-24T22:09:48;4.63;;;2.95;;
35907;SDS011;22003;50.320;8.054;2022-08-24T22:12:14;5.40;;;2.70;;
35907;SDS011;22003;50.320;8.054;2022-08-24T22:14:39;5.75;;;2.47;;
35907;SDS011;22003;50.320;8.054;2022-08-24T22:17:05;5.82;;;2.70;;
35907;SDS011;22003;50.320;8.054;2022-08-24T22:19:31;5.75;;;2.50;;
35907;SDS011;22003;50.320;8.054;2022-08-24T22:21:56;5.35;;;2.63;;
35907;SDS011;22003;50.320;8.054;2022-08-24T22:24:21;3.25;;;2.35;;
35907;SDS011;22003;50.320;8.054;2022-08-24T22:26:47;3.20;;;2.50;;
35907;SDS011;22003;50.320;8.054;2022-08-24T22:29:12;6.43;;;2.72;;
35907;SDS011;22003;50.320;8.054;2022-08-24T22:31:39;7.57;;;2.95;;